Time;durP1;ratioP1;P1;durP2;ratioP2;P2;SDS_P1;SDS_P2;PMS_P1;PMS_P2;Temp;Humidity;BMP_temperature;BMP_pressure;BME280_temperature;BME280_humidity;BME280_pressure;Samples;Min_cycle;Max_cycle;Signal;HPM_P1;HPM_P2
2022/06/22 17:30:43;;;;;;;3.42;1.40;;;30.10;58.70;;;;;;5070001;28;20425;-54
2022/06/22 17:33:10;;;;;;;5.57;1.58;;;29.60;60.00;;;;;;5057981;28;20045;-55
2022/06/22 17:35:37;;;;;;;3.35;1.13;;;29.50;60.30;;;;;;5050368;28;20110;-54
2022/06/22 17:38:04;;;;;;;3.28;1.60;;;29.50;60.10;;;;;;5050418;28;20037;-53
2022/06/22 17:40:31;;;;;;;4.03;1.20;;;29.70;60.10;;;;;;5050631;28;20448;-56
2022/06/22 17:42:59;;;;;;;3.00;1.02;;;29.80;58.70;;;;;;5050345;28;20040;-55
2022/06/22 17:45:26;;;;;;;2.50;1.08;;;29.80;59.70;;;;;;5050319;28;20033;-58
2022/06/22 17:47:53;;;;;;;2.58;1.00;;;29.70;59.10;;;;;;5050061;28;20406;-57
2022/06/22 17:50:19;;;;;;;2.65;1.05;;;29.80;59.70;;;;;;5050198;28;20099;-58
2022/06/22 17:52:46;;;;;;;3.83;1.30;;;29.80;59.50;;;;;;5047830;28;20098;-54
2022/06/22 17:55:13;;;;;;;2.22;0.90;;;30.00;58.70;;;;;;5049914;28;20507;-54
2022/06/22 17:57:40;;;;;;;2.72;0.90;;;30.00;58.20;;;;;;5048976;28;20049;-58
2022/06/22 18:00:07;;;;;;;3.33;0.90;;;30.10;57.70;;;;;;5050119;28;20087;-52
2022/06/22 18:02:34;;;;;;;5.18;1.20;;;30.10;58.30;;;;;;5049950;28;20052;-57
2022/06/22 18:05:01;;;;;;;2.55;0.90;;;30.30;57.70;;;;;;5049770;28;20037;-51
2022/06/22 18:07:28;;;;;;;3.90;1.10;;;30.40;57.50;;;;;;5050044;28;20041;-57
2022/06/22 18:09:55;;;;;;;3.33;1.00;;;30.40;57.70;;;;;;5049657;28;20067;-55
2022/06/22 18:12:22;;;;;;;2.47;0.90;;;30.60;56.80;;;;;;5049772;28;20400;-55
2022/06/22 18:14:49;;;;;;;2.80;0.95;;;30.70;56.70;;;;;;5049463;28;20042;-60
2022/06/22 18:17:15;;;;;;;4.03;1.00;;;30.70;57.00;;;;;;5049698;28;20477;-56
2022/06/22 18:19:43;;;;;;;3.13;1.08;;;30.60;57.00;;;;;;5049052;28;20043;-54
2022/06/22 18:22:12;;;;;;;4.45;1.60;;;30.70;56.50;;;;;;5048374;28;20096;-52
2022/06/22 18:24:39;;;;;;;3.58;1.20;;;30.50;57.10;;;;;;5049388;28;20065;-51
2022/06/22 18:27:05;;;;;;;3.17;1.15;;;30.40;56.80;;;;;;5048870;28;20060;-59
2022/06/22 18:29:32;;;;;;;3.55;0.90;;;30.40;56.70;;;;;;5049124;28;20056;-51
2022/06/22 18:31:59;;;;;;;3.55;1.00;;;30.30;56.80;;;;;;5048454;28;20045;-54
2022/06/22 18:34:26;;;;;;;2.33;0.90;;;30.30;57.10;;;;;;5049530;28;20037;-55
2022/06/22 18:36:52;;;;;;;1.40;0.70;;;30.20;56.70;;;;;;5047986;28;20042;-54
2022/06/22 18:42:04;;;;;;;2.28;1.00;;;30.10;57.00;;;;;;5035866;28;20064;-52
2022/06/22 18:44:31;;;;;;;2.75;1.10;;;29.90;56.90;;;;;;5035861;28;20132;-55
2022/06/22 18:46:58;;;;;;;2.78;1.02;;;29.30;57.70;;;;;;5037273;28;20046;-58
2022/06/22 18:49:25;;;;;;;2.55;0.93;;;28.80;58.10;;;;;;5035651;28;20037;-54
2022/06/22 18:51:52;;;;;;;2.15;0.98;;;28.20;59.20;;;;;;5035763;28;20041;-52
2022/06/22 18:54:20;;;;;;;2.60;0.93;;;27.80;59.90;;;;;;5035703;28;20069;-53
2022/06/22 18:56:47;;;;;;;2.38;0.98;;;27.30;60.50;;;;;;5037012;28;20046;-52
2022/06/22 18:59:13;;;;;;;2.88;0.90;;;26.80;61.50;;;;;;5038357;28;20067;-47
2022/06/22 19:01:40;;;;;;;3.00;0.90;;;26.30;62.30;;;;;;5035668;28;20045;-52
2022/06/22 19:04:07;;;;;;;2.55;0.90;;;25.90;63.00;;;;;;5035576;28;20096;-58
2022/06/22 19:06:35;;;;;;;2.78;1.05;;;25.60;63.80;;;;;;5034335;28;20076;-56
2022/06/22 19:09:02;;;;;;;3.45;1.05;;;25.40;64.30;;;;;;5035416;28;20400;-52
2022/06/22 19:11:29;;;;;;;2.75;0.80;;;25.20;64.80;;;;;;5035440;28;20510;-54
2022/06/22 19:13:55;;;;;;;4.63;0.90;;;25.00;65.40;;;;;;5034531;28;20432;-56
2022/06/22 19:16:23;;;;;;;5.43;0.80;;;24.80;66.00;;;;;;5035738;28;20416;-49
2022/06/22 19:18:50;;;;;;;2.95;0.80;;;24.60;66.50;;;;;;5035393;28;20037;-55
2022/06/22 19:21:17;;;;;;;2.83;0.77;;;24.40;67.00;;;;;;5035582;28;20041;-54
2022/06/22 19:23:43;;;;;;;2.17;1.00;;;24.40;67.50;;;;;;5033721;28;20041;-53
2022/06/22 19:26:10;;;;;;;1.48;0.60;;;24.30;67.60;;;;;;5039986;28;20041;-52
2022/06/22 19:28:37;;;;;;;4.25;0.75;;;24.10;67.80;;;;;;5035298;28;20110;-51
2022/06/22 19:31:04;;;;;;;1.85;0.90;;;24.00;68.30;;;;;;5035634;28;20042;-53
2022/06/22 19:33:31;;;;;;;2.78;0.93;;;23.90;68.80;;;;;;5034020;28;20045;-57
2022/06/22 19:35:57;;;;;;;2.55;0.80;;;23.80;68.90;;;;;;5034917;28;20045;-48
2022/06/22 19:38:24;;;;;;;3.00;1.13;;;23.70;69.20;;;;;;5035055;28;20048;-51
2022/06/22 19:40:51;;;;;;;1.70;0.70;;;23.60;69.50;;;;;;5034277;28;20045;-50
2022/06/22 19:43:17;;;;;;;2.22;0.90;;;23.40;69.80;;;;;;5034934;28;20397;-56
2022/06/22 19:45:44;;;;;;;2.10;0.70;;;23.30;70.20;;;;;;5035904;28;20050;-56
2022/06/22 19:48:11;;;;;;;2.53;0.80;;;23.20;70.40;;;;;;5032921;28;20099;-50
2022/06/22 19:50:38;;;;;;;3.45;0.95;;;23.10;70.80;;;;;;5033830;28;20045;-49
2022/06/22 19:53:05;;;;;;;3.00;0.82;;;23.00;71.00;;;;;;5033725;28;20125;-55
2022/06/22 19:55:31;;;;;;;1.55;0.85;;;22.80;71.00;;;;;;5036836;28;20376;-58
2022/06/22 19:57:58;;;;;;;2.17;0.80;;;22.70;71.10;;;;;;5034793;28;20041;-56
2022/06/22 20:00:25;;;;;;;1.83;0.80;;;22.50;71.40;;;;;;5033943;28;20038;-59
2022/06/22 20:02:52;;;;;;;4.07;0.70;;;22.40;71.80;;;;;;5034456;28;20033;-53
2022/06/22 20:05:18;;;;;;;4.88;0.88;;;22.30;72.20;;;;;;5034421;28;20045;-55
2022/06/22 20:07:45;;;;;;;3.03;0.98;;;22.30;72.50;;;;;;5034913;28;20106;-55
2022/06/22 20:10:12;;;;;;;3.53;0.90;;;22.20;72.70;;;;;;5033487;28;20038;-50
2022/06/22 20:12:39;;;;;;;3.35;1.10;;;22.20;73.10;;;;;;5033338;28;20042;-54
2022/06/22 20:15:06;;;;;;;2.78;1.15;;;22.10;73.40;;;;;;5034392;28;20049;-54
2022/06/22 20:17:32;;;;;;;3.22;1.30;;;22.10;73.90;;;;;;5038473;28;20068;-46
2022/06/22 20:19:59;;;;;;;3.20;1.20;;;22.00;74.20;;;;;;5032827;28;20054;-52
2022/06/22 20:22:29;;;;;;;4.53;1.20;;;21.90;74.60;;;;;;5034505;28;20493;-56
2022/06/22 20:24:57;;;;;;;3.22;0.90;;;21.70;74.70;;;;;;5033006;28;20489;-55
2022/06/22 20:27:32;;;;;;;2.42;1.05;;;21.60;75.00;;;;;;5035189;28;20037;-54
2022/06/22 20:29:58;;;;;;;2.88;1.10;;;21.50;75.70;;;;;;5033796;28;20052;-51
2022/06/22 20:32:25;;;;;;;4.40;1.33;;;21.50;76.20;;;;;;5033887;28;20033;-52
2022/06/22 20:34:52;;;;;;;3.35;1.05;;;21.30;76.60;;;;;;5035474;28;20076;-53
2022/06/22 20:37:19;;;;;;;3.17;1.10;;;21.20;76.90;;;;;;5034077;28;20038;-58
2022/06/22 20:39:46;;;;;;;3.22;1.20;;;21.10;77.10;;;;;;5036593;28;20488;-53
2022/06/22 20:42:13;;;;;;;5.78;1.23;;;21.10;77.30;;;;;;5033942;28;20054;-55
2022/06/22 20:44:39;;;;;;;2.88;1.17;;;21.00;77.50;;;;;;5033785;28;20037;-55
2022/06/22 20:47:06;;;;;;;3.40;1.17;;;20.90;77.90;;;;;;5034661;28;20041;-52
2022/06/22 20:49:33;;;;;;;2.70;1.20;;;20.80;78.40;;;;;;5032584;28;20041;-54
2022/06/22 20:52:00;;;;;;;2.85;1.27;;;20.80;78.90;;;;;;5027268;28;20037;-49
2022/06/22 20:54:27;;;;;;;3.53;1.20;;;20.70;79.10;;;;;;5033627;28;20037;-50
2022/06/22 20:56:54;;;;;;;4.30;1.35;;;20.70;79.20;;;;;;5033512;28;20042;-52
2022/06/22 20:59:21;;;;;;;3.05;1.25;;;20.60;79.50;;;;;;5033897;28;20037;-52
2022/06/22 21:01:47;;;;;;;3.33;1.52;;;20.50;79.70;;;;;;5033510;28;20041;-53
2022/06/22 21:04:14;;;;;;;5.38;1.17;;;20.40;80.20;;;;;;5033215;28;20045;-53
2022/06/22 21:06:41;;;;;;;2.78;1.30;;;20.30;80.40;;;;;;5036218;28;20052;-49
2022/06/22 21:09:08;;;;;;;4.65;1.20;;;20.20;81.00;;;;;;5033380;28;20447;-55
2022/06/22 21:11:35;;;;;;;5.22;1.50;;;20.10;81.10;;;;;;5034119;28;20045;-50
2022/06/22 21:14:01;;;;;;;13.15;2.00;;;20.10;81.20;;;;;;5033382;28;20045;-57
2022/06/22 21:16:28;;;;;;;6.97;1.63;;;20.00;81.60;;;;;;5037898;28;20065;-53
2022/06/22 21:18:55;;;;;;;6.63;1.60;;;19.90;81.90;;;;;;5033195;28;20053;-49
2022/06/22 21:21:22;;;;;;;3.25;1.50;;;19.80;82.50;;;;;;5031950;28;20061;-51
2022/06/22 21:23:55;;;;;;;4.47;1.80;;;19.70;82.60;;;;;;5037613;28;20093;-49
2022/06/22 21:26:22;;;;;;;4.47;1.60;;;19.70;83.00;;;;;;5033284;28;20037;-55
2022/06/22 21:31:34;;;;;;;4.45;1.75;;;19.60;83.50;;;;;;5033514;28;20038;-50
2022/06/22 21:34:01;;;;;;;4.45;1.77;;;19.50;83.70;;;;;;5033057;28;20454;-54
2022/06/22 21:36:28;;;;;;;3.75;1.60;;;19.40;84.00;;;;;;5033410;28;20049;-59
2022/06/22 21:38:56;;;;;;;4.85;1.60;;;19.40;83.90;;;;;;5033400;28;20477;-50
2022/06/22 21:41:22;;;;;;;4.65;1.60;;;19.30;84.40;;;;;;5033125;28;20041;-55
2022/06/22 21:43:49;;;;;;;3.88;1.60;;;19.30;84.30;;;;;;5033075;28;20045;-48
2022/06/22 21:46:16;;;;;;;7.35;1.80;;;19.30;84.70;;;;;;5026493;28;20042;-55
2022/06/22 21:48:43;;;;;;;7.15;1.65;;;19.20;84.90;;;;;;5036115;28;20045;-56
2022/06/22 21:51:10;;;;;;;4.32;1.70;;;19.10;84.90;;;;;;5032834;28;20049;-51
2022/06/22 21:53:36;;;;;;;4.05;1.85;;;19.10;85.10;;;;;;5032977;28;20477;-54
2022/06/22 21:56:03;;;;;;;5.05;2.08;;;19.10;85.20;;;;;;5035847;28;20041;-53
2022/06/22 21:58:30;;;;;;;4.65;1.83;;;19.10;85.40;;;;;;5032089;28;20132;-53
2022/06/22 22:00:57;;;;;;;4.32;2.13;;;19.00;85.70;;;;;;5037093;28;20044;-53
2022/06/22 22:03:24;;;;;;;5.50;2.20;;;19.00;85.90;;;;;;5032997;28;20041;-57
2022/06/22 22:05:50;;;;;;;4.63;2.13;;;18.90;86.20;;;;;;5032848;28;20389;-55
2022/06/22 22:08:17;;;;;;;5.75;2.03;;;18.80;86.10;;;;;;5032951;28;20479;-56
2022/06/22 22:10:44;;;;;;;3.63;1.98;;;18.80;86.70;;;;;;5032977;28;20052;-50
2022/06/22 22:13:11;;;;;;;6.25;2.10;;;18.80;86.70;;;;;;5033267;28;20068;-50
2022/06/22 22:15:37;;;;;;;5.40;2.10;;;18.70;86.90;;;;;;5033941;28;20477;-55
2022/06/22 22:18:04;;;;;;;5.45;2.10;;;18.60;87.50;;;;;;5037135;28;20439;-52
2022/06/22 22:20:31;;;;;;;4.93;2.30;;;18.50;87.90;;;;;;5036490;28;20041;-54
2022/06/22 22:22:58;;;;;;;8.15;2.28;;;18.40;88.40;;;;;;5035209;28;20041;-53
2022/06/22 22:25:25;;;;;;;6.18;1.90;;;18.30;88.60;;;;;;5036414;28;20037;-52
2022/06/22 22:27:52;;;;;;;5.93;1.95;;;18.30;89.00;;;;;;5035132;28;20041;-53
2022/06/22 22:30:19;;;;;;;4.28;2.03;;;18.20;89.20;;;;;;5040842;28;20061;-50
2022/06/22 22:32:46;;;;;;;4.68;2.30;;;18.20;89.30;;;;;;5036270;28;20546;-55
2022/06/22 22:35:12;;;;;;;5.65;2.25;;;18.30;89.30;;;;;;5038136;28;20129;-51
2022/06/22 22:37:39;;;;;;;4.80;2.10;;;18.30;89.60;;;;;;5036226;28;20095;-53
2022/06/22 22:40:06;;;;;;;6.78;2.10;;;18.20;89.70;;;;;;5036003;28;20051;-49
2022/06/22 22:42:33;;;;;;;4.65;2.10;;;18.20;90.00;;;;;;5034773;28;20045;-48
2022/06/22 22:45:00;;;;;;;5.93;2.40;;;18.20;90.20;;;;;;5035903;28;20107;-51
2022/06/22 22:47:26;;;;;;;6.10;2.72;;;18.00;90.40;;;;;;5035858;28;20045;-50
2022/06/22 22:49:53;;;;;;;4.65;2.70;;;17.90;90.80;;;;;;5035722;28;20049;-49
2022/06/22 22:52:20;;;;;;;6.65;2.60;;;17.90;90.80;;;;;;5035714;28;20037;-50
2022/06/22 22:54:47;;;;;;;5.70;2.42;;;17.80;91.00;;;;;;5035798;28;20048;-55
2022/06/22 22:57:14;;;;;;;5.65;2.53;;;17.70;91.10;;;;;;5034555;28;20038;-54
2022/06/22 22:59:40;;;;;;;5.75;2.85;;;17.70;91.40;;;;;;5035648;28;20041;-55
2022/06/22 23:02:07;;;;;;;8.27;3.40;;;17.70;91.50;;;;;;5035876;28;20046;-53
2022/06/22 23:04:34;;;;;;;8.32;4.43;;;17.70;91.50;;;;;;5035551;28;20052;-56
2022/06/22 23:07:01;;;;;;;10.63;4.10;;;17.70;91.50;;;;;;5035377;28;20037;-55
2022/06/22 23:09:27;;;;;;;8.65;3.17;;;17.70;91.70;;;;;;5025950;28;20046;-52
2022/06/22 23:11:54;;;;;;;6.82;2.70;;;17.70;91.70;;;;;;5028919;28;20045;-51
2022/06/22 23:14:24;;;;;;;8.30;2.90;;;17.70;91.70;;;;;;5039416;28;20050;-54
2022/06/22 23:16:51;;;;;;;5.30;3.00;;;17.70;91.90;;;;;;5032715;28;20054;-58
2022/06/22 23:19:18;;;;;;;5.90;2.83;;;17.60;92.00;;;;;;5035708;28;20500;-53
2022/06/22 23:21:44;;;;;;;6.03;2.80;;;17.60;92.20;;;;;;5036782;28;20091;-55
